sensor_id;sensor_type;location;lat;lon;timestamp;P1;durP1;ratioP1;P2;durP2;ratioP2
33794;SDS011;51430;52.242;21.118;2023-02-15T00:10:04;36.90;;;31.80;;
33794;SDS011;51430;52.242;21.118;2023-02-15T00:13:00;39.70;;;31.20;;
33794;SDS011;51430;52.242;21.118;2023-02-15T00:16:58;39.70;;;31.40;;
33794;SDS011;51430;52.242;21.118;2023-02-15T00:20:54;40.40;;;31.70;;
33794;SDS011;51430;52.242;21.118;2023-02-15T00:33:31;43.10;;;34.80;;
33794;SDS011;51430;52.242;21.118;2023-02-15T00:37:29;44.10;;;38.60;;
33794;SDS011;51430;52.242;21.118;2023-02-15T00:45:48;48.20;;;36.30;;
33794;SDS011;51430;52.242;21.118;2023-02-15T00:53:45;41.30;;;30.70;;
33794;SDS011;51430;52.242;21.118;2023-02-15T01:03:39;35.70;;;28.60;;
33794;SDS011;51430;52.242;21.118;2023-02-15T01:10:38;36.80;;;28.80;;
33794;SDS011;51430;52.242;21.118;2023-02-15T01:14:33;41.10;;;29.80;;
33794;SDS011;51430;52.242;21.118;2023-02-15T01:18:35;37.90;;;29.50;;
33794;SDS011;51430;52.242;21.118;2023-02-15T01:22:30;39.10;;;29.70;;
33794;SDS011;51430;52.242;21.118;2023-02-15T01:26:28;37.70;;;28.80;;
33794;SDS011;51430;52.242;21.118;2023-02-15T01:30:35;42.20;;;31.10;;
33794;SDS011;51430;52.242;21.118;2023-02-15T01:43:55;39.20;;;29.90;;
33794;SDS011;51430;52.242;21.118;2023-02-15T01:52:14;38.70;;;31.00;;
33794;SDS011;51430;52.242;21.118;2023-02-15T02:05:31;38.00;;;31.70;;
33794;SDS011;51430;52.242;21.118;2023-02-15T02:34:37;40.40;;;29.90;;
33794;SDS011;51430;52.242;21.118;2023-02-15T02:37:59;37.90;;;30.80;;
33794;SDS011;51430;52.242;21.118;2023-02-15T02:46:20;37.30;;;30.30;;
33794;SDS011;51430;52.242;21.118;2023-02-15T03:02:04;37.80;;;29.50;;
33794;SDS011;51430;52.242;21.118;2023-02-15T03:06:33;40.00;;;30.00;;
33794;SDS011;51430;52.242;21.118;2023-02-15T03:15:00;42.00;;;30.90;;
33794;SDS011;51430;52.242;21.118;2023-02-15T03:19:05;38.60;;;30.60;;
33794;SDS011;51430;52.242;21.118;2023-02-15T03:23:17;38.70;;;30.40;;
33794;SDS011;51430;52.242;21.118;2023-02-15T03:27:23;37.60;;;30.80;;
33794;SDS011;51430;52.242;21.118;2023-02-15T03:31:14;37.80;;;29.20;;
33794;SDS011;51430;52.242;21.118;2023-02-15T03:34:32;38.40;;;27.90;;
33794;SDS011;51430;52.242;21.118;2023-02-15T03:38:36;37.90;;;30.10;;
33794;SDS011;51430;52.242;21.118;2023-02-15T03:42:42;39.80;;;31.20;;
33794;SDS011;51430;52.242;21.118;2023-02-15T03:46:42;43.90;;;32.00;;
33794;SDS011;51430;52.242;21.118;2023-02-15T03:55:29;34.20;;;27.20;;
33794;SDS011;51430;52.242;21.118;2023-02-15T03:59:45;36.90;;;28.80;;
33794;SDS011;51430;52.242;21.118;2023-02-15T04:07:42;42.60;;;31.00;;
33794;SDS011;51430;52.242;21.118;2023-02-15T04:11:41;41.80;;;31.00;;
33794;SDS011;51430;52.242;21.118;2023-02-15T04:15:37;36.50;;;30.60;;
33794;SDS011;51430;52.242;21.118;2023-02-15T04:24:31;42.50;;;32.20;;
33794;SDS011;51430;52.242;21.118;2023-02-15T04:28:47;37.40;;;30.20;;
33794;SDS011;51430;52.242;21.118;2023-02-15T04:32:43;39.90;;;30.80;;
33794;SDS011;51430;52.242;21.118;2023-02-15T04:36:59;47.40;;;34.60;;
33794;SDS011;51430;52.242;21.118;2023-02-15T04:44:52;39.80;;;28.90;;
33794;SDS011;51430;52.242;21.118;2023-02-15T04:48:47;32.80;;;27.30;;
33794;SDS011;51430;52.242;21.118;2023-02-15T04:52:48;36.10;;;27.20;;
33794;SDS011;51430;52.242;21.118;2023-02-15T04:56:21;36.40;;;26.80;;
33794;SDS011;51430;52.242;21.118;2023-02-15T05:00:20;33.70;;;27.40;;
33794;SDS011;51430;52.242;21.118;2023-02-15T05:04:18;37.90;;;29.00;;
33794;SDS011;51430;52.242;21.118;2023-02-15T05:08:16;33.40;;;25.90;;
33794;SDS011;51430;52.242;21.118;2023-02-15T05:18:16;36.90;;;27.80;;
33794;SDS011;51430;52.242;21.118;2023-02-15T05:22:34;38.40;;;28.80;;
33794;SDS011;51430;52.242;21.118;2023-02-15T05:30:39;33.00;;;25.90;;
33794;SDS011;51430;52.242;21.118;2023-02-15T05:34:35;33.80;;;26.90;;
33794;SDS011;51430;52.242;21.118;2023-02-15T05:38:41;34.50;;;27.10;;
33794;SDS011;51430;52.242;21.118;2023-02-15T05:41:27;37.50;;;31.90;;
33794;SDS011;51430;52.242;21.118;2023-02-15T05:44:14;35.80;;;32.00;;
33794;SDS011;51430;52.242;21.118;2023-02-15T05:47:00;37.50;;;33.30;;
33794;SDS011;51430;52.242;21.118;2023-02-15T06:03:19;34.70;;;27.60;;
33794;SDS011;51430;52.242;21.118;2023-02-15T06:06:16;31.80;;;25.20;;
33794;SDS011;51430;52.242;21.118;2023-02-15T06:10:11;32.90;;;26.00;;
33794;SDS011;51430;52.242;21.118;2023-02-15T06:14:07;32.10;;;26.90;;
33794;SDS011;51430;52.242;21.118;2023-02-15T06:16:53;37.00;;;32.60;;
33794;SDS011;51430;52.242;21.118;2023-02-15T06:19:40;38.50;;;33.60;;
33794;SDS011;51430;52.242;21.118;2023-02-15T06:22:26;39.10;;;34.80;;
33794;SDS011;51430;52.242;21.118;2023-02-15T06:25:13;38.90;;;34.30;;
33794;SDS011;51430;52.242;21.118;2023-02-15T06:28:00;40.00;;;35.00;;
33794;SDS011;51430;52.242;21.118;2023-02-15T06:30:55;38.10;;;28.40;;
33794;SDS011;51430;52.242;21.118;2023-02-15T06:41:08;35.00;;;31.30;;
33794;SDS011;51430;52.242;21.118;2023-02-15T06:43:55;35.90;;;32.00;;
33794;SDS011;51430;52.242;21.118;2023-02-15T06:46:44;38.00;;;32.90;;
33794;SDS011;51430;52.242;21.118;2023-02-15T06:49:31;36.30;;;30.00;;
33794;SDS011;51430;52.242;21.118;2023-02-15T06:52:18;35.00;;;31.20;;
33794;SDS011;51430;52.242;21.118;2023-02-15T06:55:05;39.20;;;33.50;;
33794;SDS011;51430;52.242;21.118;2023-02-15T06:57:52;38.60;;;34.30;;
33794;SDS011;51430;52.242;21.118;2023-02-15T07:00:39;41.30;;;35.60;;
33794;SDS011;51430;52.242;21.118;2023-02-15T07:03:26;42.50;;;37.10;;
33794;SDS011;51430;52.242;21.118;2023-02-15T07:06:13;41.70;;;35.00;;
33794;SDS011;51430;52.242;21.118;2023-02-15T07:13:23;42.10;;;35.00;;
33794;SDS011;51430;52.242;21.118;2023-02-15T07:16:10;41.90;;;36.20;;
33794;SDS011;51430;52.242;21.118;2023-02-15T07:18:57;41.30;;;35.30;;
33794;SDS011;51430;52.242;21.118;2023-02-15T07:21:44;37.90;;;32.30;;
33794;SDS011;51430;52.242;21.118;2023-02-15T07:24:31;39.90;;;33.30;;
33794;SDS011;51430;52.242;21.118;2023-02-15T07:27:18;41.20;;;34.60;;
33794;SDS011;51430;52.242;21.118;2023-02-15T07:30:05;39.60;;;35.10;;
33794;SDS011;51430;52.242;21.118;2023-02-15T07:32:57;39.20;;;34.70;;
33794;SDS011;51430;52.242;21.118;2023-02-15T07:36:03;41.90;;;35.70;;
33794;SDS011;51430;52.242;21.118;2023-02-15T07:38:50;42.20;;;35.10;;
33794;SDS011;51430;52.242;21.118;2023-02-15T07:41:37;42.00;;;35.30;;
33794;SDS011;51430;52.242;21.118;2023-02-15T07:44:23;34.70;;;30.90;;
33794;SDS011;51430;52.242;21.118;2023-02-15T07:49:35;38.30;;;28.20;;
33794;SDS011;51430;52.242;21.118;2023-02-15T07:53:04;36.10;;;28.10;;
33794;SDS011;51430;52.242;21.118;2023-02-15T07:55:49;39.10;;;33.00;;
33794;SDS011;51430;52.242;21.118;2023-02-15T07:58:34;42.20;;;37.60;;
33794;SDS011;51430;52.242;21.118;2023-02-15T08:01:36;38.70;;;32.90;;
33794;SDS011;51430;52.242;21.118;2023-02-15T08:04:23;40.00;;;34.30;;
33794;SDS011;51430;52.242;21.118;2023-02-15T08:07:09;37.90;;;33.70;;
33794;SDS011;51430;52.242;21.118;2023-02-15T08:09:55;41.30;;;35.90;;
33794;SDS011;51430;52.242;21.118;2023-02-15T08:12:40;45.20;;;37.80;;
33794;SDS011;51430;52.242;21.118;2023-02-15T08:15:25;43.20;;;36.70;;
33794;SDS011;51430;52.242;21.118;2023-02-15T08:18:10;45.00;;;38.20;;
33794;SDS011;51430;52.242;21.118;2023-02-15T08:20:55;42.80;;;36.70;;
33794;SDS011;51430;52.242;21.118;2023-02-15T08:23:40;45.30;;;38.50;;
33794;SDS011;51430;52.242;21.118;2023-02-15T08:26:26;46.20;;;38.60;;
33794;SDS011;51430;52.242;21.118;2023-02-15T08:29:16;44.00;;;37.80;;
33794;SDS011;51430;52.242;21.118;2023-02-15T08:32:05;44.70;;;38.60;;
33794;SDS011;51430;52.242;21.118;2023-02-15T08:34:51;45.30;;;36.50;;
33794;SDS011;51430;52.242;21.118;2023-02-15T08:37:37;52.00;;;41.50;;
33794;SDS011;51430;52.242;21.118;2023-02-15T08:40:22;48.80;;;40.10;;
33794;SDS011;51430;52.242;21.118;2023-02-15T08:43:08;36.50;;;31.40;;
33794;SDS011;51430;52.242;21.118;2023-02-15T08:45:53;39.70;;;33.20;;
33794;SDS011;51430;52.242;21.118;2023-02-15T08:48:39;40.30;;;34.10;;
33794;SDS011;51430;52.242;21.118;2023-02-15T08:51:26;44.20;;;37.00;;
33794;SDS011;51430;52.242;21.118;2023-02-15T08:54:14;44.70;;;36.80;;
33794;SDS011;51430;52.242;21.118;2023-02-15T08:57:01;47.10;;;36.40;;
33794;SDS011;51430;52.242;21.118;2023-02-15T08:59:47;45.50;;;34.80;;
33794;SDS011;51430;52.242;21.118;2023-02-15T09:02:32;46.40;;;35.60;;
33794;SDS011;51430;52.242;21.118;2023-02-15T09:05:17;49.40;;;38.00;;
33794;SDS011;51430;52.242;21.118;2023-02-15T09:08:02;46.10;;;36.50;;
33794;SDS011;51430;52.242;21.118;2023-02-15T09:10:48;45.30;;;36.70;;
33794;SDS011;51430;52.242;21.118;2023-02-15T09:13:33;36.90;;;29.70;;
33794;SDS011;51430;52.242;21.118;2023-02-15T09:16:19;40.70;;;30.40;;
33794;SDS011;51430;52.242;21.118;2023-02-15T09:19:06;41.90;;;31.40;;
33794;SDS011;51430;52.242;21.118;2023-02-15T09:21:52;40.90;;;30.70;;
33794;SDS011;51430;52.242;21.118;2023-02-15T09:24:38;36.70;;;28.50;;
33794;SDS011;51430;52.242;21.118;2023-02-15T09:27:23;38.10;;;30.50;;
33794;SDS011;51430;52.242;21.118;2023-02-15T09:30:09;39.00;;;30.40;;
33794;SDS011;51430;52.242;21.118;2023-02-15T09:32:55;41.80;;;33.00;;
33794;SDS011;51430;52.242;21.118;2023-02-15T09:35:40;36.30;;;27.80;;
33794;SDS011;51430;52.242;21.118;2023-02-15T09:38:45;34.00;;;24.50;;
33794;SDS011;51430;52.242;21.118;2023-02-15T09:50:12;32.90;;;27.70;;
33794;SDS011;51430;52.242;21.118;2023-02-15T10:11:24;34.80;;;28.20;;
33794;SDS011;51430;52.242;21.118;2023-02-15T10:17:57;36.90;;;28.20;;
33794;SDS011;51430;52.242;21.118;2023-02-15T10:21:07;40.70;;;28.90;;
33794;SDS011;51430;52.242;21.118;2023-02-15T10:27:26;39.10;;;29.10;;
33794;SDS011;51430;52.242;21.118;2023-02-15T10:33:40;39.20;;;29.10;;
33794;SDS011;51430;52.242;21.118;2023-02-15T10:46:54;42.00;;;30.70;;
33794;SDS011;51430;52.242;21.118;2023-02-15T10:49:58;41.40;;;30.50;;
33794;SDS011;51430;52.242;21.118;2023-02-15T10:54:23;35.80;;;24.60;;
33794;SDS011;51430;52.242;21.118;2023-02-15T11:06:34;35.40;;;27.30;;
33794;SDS011;51430;52.242;21.118;2023-02-15T11:09:27;31.40;;;24.90;;
33794;SDS011;51430;52.242;21.118;2023-02-15T11:12:24;31.40;;;24.90;;
33794;SDS011;51430;52.242;21.118;2023-02-15T11:15:56;34.30;;;26.00;;
33794;SDS011;51430;52.242;21.118;2023-02-15T11:18:34;35.70;;;26.50;;
33794;SDS011;51430;52.242;21.118;2023-02-15T11:24:19;38.20;;;28.40;;
33794;SDS011;51430;52.242;21.118;2023-02-15T11:32:55;32.90;;;25.90;;
33794;SDS011;51430;52.242;21.118;2023-02-15T11:35:53;32.90;;;26.20;;
33794;SDS011;51430;52.242;21.118;2023-02-15T11:38:45;30.70;;;24.70;;
33794;SDS011;51430;52.242;21.118;2023-02-15T11:41:40;31.80;;;25.00;;
33794;SDS011;51430;52.242;21.118;2023-02-15T11:44:42;31.20;;;23.90;;
33794;SDS011;51430;52.242;21.118;2023-02-15T11:47:37;30.10;;;23.70;;
33794;SDS011;51430;52.242;21.118;2023-02-15T11:50:28;32.60;;;25.20;;
33794;SDS011;51430;52.242;21.118;2023-02-15T12:05:07;27.00;;;19.90;;
33794;SDS011;51430;52.242;21.118;2023-02-15T12:08:40;26.70;;;18.70;;
33794;SDS011;51430;52.242;21.118;2023-02-15T12:11:35;29.60;;;23.00;;
33794;SDS011;51430;52.242;21.118;2023-02-15T12:14:22;29.60;;;24.00;;
33794;SDS011;51430;52.242;21.118;2023-02-15T12:17:12;29.70;;;23.80;;
33794;SDS011;51430;52.242;21.118;2023-02-15T12:20:03;34.80;;;25.60;;
33794;SDS011;51430;52.242;21.118;2023-02-15T12:23:08;31.50;;;24.40;;
33794;SDS011;51430;52.242;21.118;2023-02-15T12:25:57;35.20;;;26.00;;
33794;SDS011;51430;52.242;21.118;2023-02-15T12:28:44;32.60;;;25.10;;
33794;SDS011;51430;52.242;21.118;2023-02-15T12:31:37;33.90;;;27.10;;
33794;SDS011;51430;52.242;21.118;2023-02-15T12:34:26;33.80;;;26.00;;
33794;SDS011;51430;52.242;21.118;2023-02-15T12:37:17;33.70;;;27.10;;
33794;SDS011;51430;52.242;21.118;2023-02-15T12:40:21;36.10;;;27.50;;
33794;SDS011;51430;52.242;21.118;2023-02-15T12:46:25;36.20;;;27.30;;
33794;SDS011;51430;52.242;21.118;2023-02-15T12:49:17;34.10;;;27.00;;
33794;SDS011;51430;52.242;21.118;2023-02-15T12:52:23;35.70;;;27.50;;
33794;SDS011;51430;52.242;21.118;2023-02-15T12:55:20;35.90;;;27.30;;
33794;SDS011;51430;52.242;21.118;2023-02-15T13:01:17;38.00;;;29.20;;
33794;SDS011;51430;52.242;21.118;2023-02-15T13:04:13;31.10;;;25.50;;
33794;SDS011;51430;52.242;21.118;2023-02-15T13:07:06;32.50;;;25.70;;
33794;SDS011;51430;52.242;21.118;2023-02-15T13:09:57;33.20;;;26.80;;
33794;SDS011;51430;52.242;21.118;2023-02-15T13:12:43;37.10;;;28.30;;
33794;SDS011;51430;52.242;21.118;2023-02-15T13:15:34;35.60;;;28.20;;
33794;SDS011;51430;52.242;21.118;2023-02-15T13:18:32;34.20;;;27.30;;
33794;SDS011;51430;52.242;21.118;2023-02-15T13:21:24;35.80;;;27.50;;
33794;SDS011;51430;52.242;21.118;2023-02-15T13:24:25;36.70;;;29.00;;
33794;SDS011;51430;52.242;21.118;2023-02-15T13:27:15;37.50;;;28.20;;
33794;SDS011;51430;52.242;21.118;2023-02-15T13:30:10;37.40;;;28.30;;
33794;SDS011;51430;52.242;21.118;2023-02-15T13:36:23;39.50;;;29.20;;
33794;SDS011;51430;52.242;21.118;2023-02-15T13:42:26;40.60;;;31.10;;
33794;SDS011;51430;52.242;21.118;2023-02-15T13:48:39;35.70;;;24.90;;
33794;SDS011;51430;52.242;21.118;2023-02-15T13:57:54;39.80;;;31.20;;
33794;SDS011;51430;52.242;21.118;2023-02-15T14:01:03;41.50;;;30.60;;
33794;SDS011;51430;52.242;21.118;2023-02-15T14:03:56;37.80;;;29.70;;
33794;SDS011;51430;52.242;21.118;2023-02-15T14:22:38;44.80;;;33.00;;
33794;SDS011;51430;52.242;21.118;2023-02-15T14:25:38;58.60;;;46.30;;
33794;SDS011;51430;52.242;21.118;2023-02-15T14:28:51;52.30;;;43.50;;
33794;SDS011;51430;52.242;21.118;2023-02-15T14:31:41;45.80;;;34.50;;
33794;SDS011;51430;52.242;21.118;2023-02-15T14:34:36;40.80;;;32.10;;
33794;SDS011;51430;52.242;21.118;2023-02-15T14:40:58;45.80;;;34.30;;
33794;SDS011;51430;52.242;21.118;2023-02-15T14:44:00;45.10;;;35.30;;
33794;SDS011;51430;52.242;21.118;2023-02-15T14:47:15;46.60;;;36.70;;
33794;SDS011;51430;52.242;21.118;2023-02-15T14:53:22;48.30;;;38.90;;
33794;SDS011;51430;52.242;21.118;2023-02-15T14:56:22;50.40;;;43.70;;
33794;SDS011;51430;52.242;21.118;2023-02-15T14:59:21;45.90;;;37.20;;
33794;SDS011;51430;52.242;21.118;2023-02-15T15:02:12;42.70;;;34.20;;
33794;SDS011;51430;52.242;21.118;2023-02-15T15:08:17;47.00;;;35.70;;
33794;SDS011;51430;52.242;21.118;2023-02-15T15:11:37;48.50;;;36.80;;
33794;SDS011;51430;52.242;21.118;2023-02-15T15:26:22;45.00;;;33.20;;
33794;SDS011;51430;52.242;21.118;2023-02-15T15:29:11;44.30;;;32.20;;
33794;SDS011;51430;52.242;21.118;2023-02-15T15:31:59;43.60;;;32.20;;
33794;SDS011;51430;52.242;21.118;2023-02-15T15:45:25;47.10;;;33.40;;
33794;SDS011;51430;52.242;21.118;2023-02-15T15:51:32;48.80;;;34.80;;
33794;SDS011;51430;52.242;21.118;2023-02-15T15:54:23;47.00;;;33.50;;
33794;SDS011;51430;52.242;21.118;2023-02-15T16:03:26;44.10;;;31.80;;
33794;SDS011;51430;52.242;21.118;2023-02-15T16:06:26;39.80;;;30.00;;
33794;SDS011;51430;52.242;21.118;2023-02-15T16:09:21;50.30;;;35.20;;
33794;SDS011;51430;52.242;21.118;2023-02-15T16:12:13;43.70;;;32.20;;
33794;SDS011;51430;52.242;21.118;2023-02-15T16:15:15;42.70;;;32.70;;
33794;SDS011;51430;52.242;21.118;2023-02-15T16:18:10;38.80;;;30.20;;
33794;SDS011;51430;52.242;21.118;2023-02-15T16:21:02;41.70;;;30.00;;
33794;SDS011;51430;52.242;21.118;2023-02-15T16:23:59;40.10;;;29.90;;
33794;SDS011;51430;52.242;21.118;2023-02-15T16:27:09;38.70;;;28.90;;
33794;SDS011;51430;52.242;21.118;2023-02-15T16:29:58;40.40;;;28.90;;
33794;SDS011;51430;52.242;21.118;2023-02-15T16:32:44;39.00;;;29.60;;
33794;SDS011;51430;52.242;21.118;2023-02-15T16:35:31;39.80;;;29.80;;
33794;SDS011;51430;52.242;21.118;2023-02-15T16:38:19;38.70;;;28.20;;
33794;SDS011;51430;52.242;21.118;2023-02-15T16:41:21;37.30;;;28.80;;
33794;SDS011;51430;52.242;21.118;2023-02-15T16:44:15;38.60;;;30.70;;
33794;SDS011;51430;52.242;21.118;2023-02-15T16:47:04;41.00;;;31.40;;
33794;SDS011;51430;52.242;21.118;2023-02-15T16:50:01;39.90;;;29.10;;
33794;SDS011;51430;52.242;21.118;2023-02-15T16:52:50;37.10;;;29.40;;
33794;SDS011;51430;52.242;21.118;2023-02-15T16:55:39;38.80;;;30.90;;
33794;SDS011;51430;52.242;21.118;2023-02-15T16:58:38;39.80;;;31.20;;
33794;SDS011;51430;52.242;21.118;2023-02-15T17:01:33;39.30;;;31.50;;
33794;SDS011;51430;52.242;21.118;2023-02-15T17:05:58;41.80;;;27.60;;
33794;SDS011;51430;52.242;21.118;2023-02-15T17:08:52;43.80;;;32.40;;
33794;SDS011;51430;52.242;21.118;2023-02-15T17:15:32;43.50;;;33.70;;
33794;SDS011;51430;52.242;21.118;2023-02-15T17:30:39;47.30;;;31.10;;
33794;SDS011;51430;52.242;21.118;2023-02-15T17:33:38;44.30;;;30.40;;
33794;SDS011;51430;52.242;21.118;2023-02-15T17:46:04;47.50;;;30.90;;
33794;SDS011;51430;52.242;21.118;2023-02-15T17:48:51;51.30;;;36.80;;
33794;SDS011;51430;52.242;21.118;2023-02-15T17:51:39;50.50;;;36.80;;
33794;SDS011;51430;52.242;21.118;2023-02-15T17:54:26;56.40;;;38.20;;
33794;SDS011;51430;52.242;21.118;2023-02-15T17:57:32;48.60;;;36.80;;
33794;SDS011;51430;52.242;21.118;2023-02-15T18:02:52;48.10;;;34.60;;
33794;SDS011;51430;52.242;21.118;2023-02-15T18:07:16;49.40;;;32.00;;
33794;SDS011;51430;52.242;21.118;2023-02-15T18:10:22;53.70;;;39.10;;
33794;SDS011;51430;52.242;21.118;2023-02-15T18:13:28;51.80;;;38.40;;
33794;SDS011;51430;52.242;21.118;2023-02-15T18:16:21;48.60;;;37.40;;
33794;SDS011;51430;52.242;21.118;2023-02-15T18:21:22;48.90;;;32.80;;
33794;SDS011;51430;52.242;21.118;2023-02-15T18:24:33;45.80;;;30.40;;
33794;SDS011;51430;52.242;21.118;2023-02-15T18:28:31;47.80;;;31.10;;
33794;SDS011;51430;52.242;21.118;2023-02-15T18:32:33;48.60;;;32.70;;
33794;SDS011;51430;52.242;21.118;2023-02-15T18:35:22;52.70;;;38.70;;
33794;SDS011;51430;52.242;21.118;2023-02-15T18:38:12;51.60;;;37.60;;
33794;SDS011;51430;52.242;21.118;2023-02-15T18:40:59;53.00;;;38.10;;
33794;SDS011;51430;52.242;21.118;2023-02-15T18:43:48;50.80;;;38.50;;
33794;SDS011;51430;52.242;21.118;2023-02-15T18:47:49;48.50;;;32.90;;
33794;SDS011;51430;52.242;21.118;2023-02-15T18:51:48;47.90;;;33.40;;
33794;SDS011;51430;52.242;21.118;2023-02-15T18:54:34;54.40;;;39.40;;
33794;SDS011;51430;52.242;21.118;2023-02-15T18:57:19;52.60;;;39.80;;
33794;SDS011;51430;52.242;21.118;2023-02-15T19:00:06;53.00;;;39.70;;
33794;SDS011;51430;52.242;21.118;2023-02-15T19:05:33;49.20;;;33.70;;
33794;SDS011;51430;52.242;21.118;2023-02-15T19:09:31;52.40;;;34.50;;
33794;SDS011;51430;52.242;21.118;2023-02-15T19:13:34;52.70;;;33.80;;
33794;SDS011;51430;52.242;21.118;2023-02-15T19:17:12;49.50;;;32.50;;
33794;SDS011;51430;52.242;21.118;2023-02-15T19:21:14;69.00;;;40.20;;
33794;SDS011;51430;52.242;21.118;2023-02-15T19:25:20;72.70;;;39.90;;
33794;SDS011;51430;52.242;21.118;2023-02-15T19:43:38;51.90;;;35.00;;
33794;SDS011;51430;52.242;21.118;2023-02-15T19:46:55;53.10;;;32.20;;
33794;SDS011;51430;52.242;21.118;2023-02-15T20:01:39;52.80;;;35.40;;
33794;SDS011;51430;52.242;21.118;2023-02-15T20:04:38;49.20;;;33.30;;
33794;SDS011;51430;52.242;21.118;2023-02-15T20:08:27;51.60;;;32.80;;
33794;SDS011;51430;52.242;21.118;2023-02-15T20:11:52;48.30;;;32.80;;
33794;SDS011;51430;52.242;21.118;2023-02-15T20:15:54;50.00;;;33.80;;
33794;SDS011;51430;52.242;21.118;2023-02-15T20:19:53;49.00;;;34.20;;
33794;SDS011;51430;52.242;21.118;2023-02-15T20:23:59;52.10;;;32.90;;
33794;SDS011;51430;52.242;21.118;2023-02-15T20:27:29;48.70;;;32.90;;
33794;SDS011;51430;52.242;21.118;2023-02-15T20:36:15;62.50;;;41.10;;
33794;SDS011;51430;52.242;21.118;2023-02-15T20:50:45;55.20;;;38.10;;
33794;SDS011;51430;52.242;21.118;2023-02-15T21:18:25;60.50;;;38.10;;
33794;SDS011;51430;52.242;21.118;2023-02-15T21:21:47;59.40;;;36.80;;
33794;SDS011;51430;52.242;21.118;2023-02-15T21:31:21;54.80;;;33.50;;
33794;SDS011;51430;52.242;21.118;2023-02-15T21:35:22;56.90;;;38.70;;
33794;SDS011;51430;52.242;21.118;2023-02-15T21:39:18;64.70;;;45.00;;
33794;SDS011;51430;52.242;21.118;2023-02-15T21:43:21;67.70;;;46.20;;
33794;SDS011;51430;52.242;21.118;2023-02-15T21:47:39;65.90;;;42.80;;
33794;SDS011;51430;52.242;21.118;2023-02-15T21:56:35;76.20;;;48.10;;
33794;SDS011;51430;52.242;21.118;2023-02-15T21:59:29;84.00;;;57.90;;
33794;SDS011;51430;52.242;21.118;2023-02-15T22:02:29;89.50;;;60.20;;
33794;SDS011;51430;52.242;21.118;2023-02-15T22:05:21;90.20;;;61.10;;
33794;SDS011;51430;52.242;21.118;2023-02-15T22:08:10;89.30;;;64.50;;
33794;SDS011;51430;52.242;21.118;2023-02-15T22:11:39;81.80;;;52.50;;
33794;SDS011;51430;52.242;21.118;2023-02-15T22:14:38;89.70;;;64.70;;
33794;SDS011;51430;52.242;21.118;2023-02-15T22:17:26;89.20;;;63.80;;
33794;SDS011;51430;52.242;21.118;2023-02-15T22:20:17;88.50;;;64.30;;
33794;SDS011;51430;52.242;21.118;2023-02-15T22:23:11;93.50;;;66.70;;
33794;SDS011;51430;52.242;21.118;2023-02-15T22:26:39;94.80;;;56.10;;
33794;SDS011;51430;52.242;21.118;2023-02-15T22:30:41;87.20;;;54.20;;
33794;SDS011;51430;52.242;21.118;2023-02-15T22:34:23;82.60;;;52.90;;
33794;SDS011;51430;52.242;21.118;2023-02-15T22:38:22;85.90;;;51.30;;
33794;SDS011;51430;52.242;21.118;2023-02-15T22:42:22;83.60;;;52.30;;
33794;SDS011;51430;52.242;21.118;2023-02-15T22:46:21;82.10;;;52.80;;
33794;SDS011;51430;52.242;21.118;2023-02-15T22:56:03;82.90;;;50.80;;
33794;SDS011;51430;52.242;21.118;2023-02-15T23:00:32;87.10;;;55.80;;
33794;SDS011;51430;52.242;21.118;2023-02-15T23:03:47;84.70;;;54.00;;
33794;SDS011;51430;52.242;21.118;2023-02-15T23:07:17;87.80;;;55.60;;
33794;SDS011;51430;52.242;21.118;2023-02-15T23:16:00;93.80;;;56.60;;
33794;SDS011;51430;52.242;21.118;2023-02-15T23:25:42;88.10;;;54.80;;
33794;SDS011;51430;52.242;21.118;2023-02-15T23:29:44;97.60;;;58.50;;
33794;SDS011;51430;52.242;21.118;2023-02-15T23:34:01;91.50;;;58.00;;
33794;SDS011;51430;52.242;21.118;2023-02-15T23:37:21;96.90;;;56.10;;
33794;SDS011;51430;52.242;21.118;2023-02-15T23:41:17;94.60;;;57.80;;
33794;SDS011;51430;52.242;21.118;2023-02-15T23:45:21;93.20;;;57.80;;
33794;SDS011;51430;52.242;21.118;2023-02-15T23:52:57;89.70;;;55.40;;
